sensor_id;sensor_type;location;lat;lon;timestamp;P1;durP1;ratioP1;P2;durP2;ratioP2
69678;SDS011;56915;52.046;4.854;2022-09-09T00:04:57;3.33;;;2.00;;
69678;SDS011;56915;52.046;4.854;2022-09-09T00:10:31;3.50;;;2.03;;
69678;SDS011;56915;52.046;4.854;2022-09-09T00:13:16;3.75;;;2.25;;
69678;SDS011;56915;52.046;4.854;2022-09-09T00:16:07;5.57;;;2.55;;
69678;SDS011;56915;52.046;4.854;2022-09-09T00:19:32;4.60;;;2.03;;
69678;SDS011;56915;52.046;4.854;2022-09-09T00:21:49;4.30;;;2.30;;
69678;SDS011;56915;52.046;4.854;2022-09-09T00:24:57;6.00;;;2.53;;
69678;SDS011;56915;52.046;4.854;2022-09-09T00:27:36;3.40;;;2.20;;
69678;SDS011;56915;52.046;4.854;2022-09-09T00:32:50;6.97;;;2.42;;
69678;SDS011;56915;52.046;4.854;2022-09-09T00:35:32;4.70;;;2.58;;
69678;SDS011;56915;52.046;4.854;2022-09-09T00:38:05;4.60;;;3.00;;
69678;SDS011;56915;52.046;4.854;2022-09-09T00:40:48;5.30;;;2.55;;
69678;SDS011;56915;52.046;4.854;2022-09-09T00:43:32;5.47;;;2.97;;
69678;SDS011;56915;52.046;4.854;2022-09-09T00:57:28;5.22;;;2.97;;
69678;SDS011;56915;52.046;4.854;2022-09-09T01:00:17;6.10;;;3.47;;
69678;SDS011;56915;52.046;4.854;2022-09-09T01:05:22;6.23;;;3.60;;
69678;SDS011;56915;52.046;4.854;2022-09-09T01:07:52;6.63;;;3.95;;
69678;SDS011;56915;52.046;4.854;2022-09-09T01:11:09;6.82;;;3.75;;
69678;SDS011;56915;52.046;4.854;2022-09-09T01:13:26;7.13;;;3.95;;
69678;SDS011;56915;52.046;4.854;2022-09-09T01:16:00;6.70;;;3.72;;
69678;SDS011;56915;52.046;4.854;2022-09-09T01:18:38;9.27;;;3.53;;
69678;SDS011;56915;52.046;4.854;2022-09-09T01:21:22;7.13;;;3.60;;
69678;SDS011;56915;52.046;4.854;2022-09-09T01:29:15;8.13;;;3.25;;
69678;SDS011;56915;52.046;4.854;2022-09-09T01:31:56;8.18;;;3.42;;
69678;SDS011;56915;52.046;4.854;2022-09-09T01:34:28;5.40;;;3.28;;
69678;SDS011;56915;52.046;4.854;2022-09-09T01:39:34;6.03;;;3.17;;
69678;SDS011;56915;52.046;4.854;2022-09-09T01:42:02;6.65;;;3.20;;
69678;SDS011;56915;52.046;4.854;2022-09-09T01:44:32;9.77;;;3.75;;
69678;SDS011;56915;52.046;4.854;2022-09-09T01:47:02;8.38;;;3.28;;
69678;SDS011;56915;52.046;4.854;2022-09-09T01:49:29;6.05;;;3.22;;
69678;SDS011;56915;52.046;4.854;2022-09-09T01:51:57;5.68;;;3.25;;
69678;SDS011;56915;52.046;4.854;2022-09-09T01:54:24;6.57;;;3.42;;
69678;SDS011;56915;52.046;4.854;2022-09-09T01:57:02;8.55;;;3.50;;
69678;SDS011;56915;52.046;4.854;2022-09-09T02:02:56;7.05;;;3.22;;
69678;SDS011;56915;52.046;4.854;2022-09-09T02:08:29;7.18;;;3.67;;
69678;SDS011;56915;52.046;4.854;2022-09-09T02:11:14;6.55;;;3.38;;
69678;SDS011;56915;52.046;4.854;2022-09-09T02:13:46;7.22;;;3.80;;
69678;SDS011;56915;52.046;4.854;2022-09-09T02:16:18;8.77;;;3.10;;
69678;SDS011;56915;52.046;4.854;2022-09-09T02:18:53;7.95;;;3.28;;
69678;SDS011;56915;52.046;4.854;2022-09-09T02:21:28;7.50;;;3.35;;
69678;SDS011;56915;52.046;4.854;2022-09-09T02:24:10;7.45;;;4.45;;
69678;SDS011;56915;52.046;4.854;2022-09-09T02:26:41;7.20;;;3.63;;
69678;SDS011;56915;52.046;4.854;2022-09-09T02:29:20;8.05;;;3.80;;
69678;SDS011;56915;52.046;4.854;2022-09-09T02:31:50;6.55;;;3.72;;
69678;SDS011;56915;52.046;4.854;2022-09-09T02:34:21;7.68;;;3.60;;
69678;SDS011;56915;52.046;4.854;2022-09-09T02:36:50;7.75;;;3.60;;
69678;SDS011;56915;52.046;4.854;2022-09-09T02:39:20;7.80;;;3.70;;
69678;SDS011;56915;52.046;4.854;2022-09-09T02:41:46;8.25;;;3.83;;
69678;SDS011;56915;52.046;4.854;2022-09-09T02:44:14;7.10;;;3.90;;
69678;SDS011;56915;52.046;4.854;2022-09-09T02:52:18;10.27;;;4.40;;
69678;SDS011;56915;52.046;4.854;2022-09-09T02:54:52;7.45;;;3.92;;
69678;SDS011;56915;52.046;4.854;2022-09-09T02:57:25;8.40;;;4.30;;
69678;SDS011;56915;52.046;4.854;2022-09-09T02:59:55;6.40;;;4.28;;
69678;SDS011;56915;52.046;4.854;2022-09-09T03:02:26;7.43;;;4.30;;
69678;SDS011;56915;52.046;4.854;2022-09-09T03:04:53;8.97;;;4.50;;
69678;SDS011;56915;52.046;4.854;2022-09-09T03:07:20;8.32;;;4.38;;
69678;SDS011;56915;52.046;4.854;2022-09-09T03:09:47;10.13;;;4.43;;
69678;SDS011;56915;52.046;4.854;2022-09-09T03:12:15;9.23;;;4.63;;
69678;SDS011;56915;52.046;4.854;2022-09-09T03:14:42;9.65;;;4.40;;
69678;SDS011;56915;52.046;4.854;2022-09-09T03:17:11;11.53;;;4.67;;
69678;SDS011;56915;52.046;4.854;2022-09-09T03:19:38;8.77;;;4.75;;
69678;SDS011;56915;52.046;4.854;2022-09-09T03:22:06;10.77;;;5.18;;
69678;SDS011;56915;52.046;4.854;2022-09-09T03:24:35;10.85;;;4.75;;
69678;SDS011;56915;52.046;4.854;2022-09-09T03:27:02;11.35;;;4.55;;
69678;SDS011;56915;52.046;4.854;2022-09-09T03:29:29;9.67;;;4.80;;
69678;SDS011;56915;52.046;4.854;2022-09-09T03:31:56;9.45;;;5.03;;
69678;SDS011;56915;52.046;4.854;2022-09-09T03:34:22;7.35;;;4.35;;
69678;SDS011;56915;52.046;4.854;2022-09-09T03:36:49;10.38;;;4.60;;
69678;SDS011;56915;52.046;4.854;2022-09-09T03:39:16;10.27;;;4.45;;
69678;SDS011;56915;52.046;4.854;2022-09-09T03:41:43;9.00;;;4.35;;
69678;SDS011;56915;52.046;4.854;2022-09-09T03:44:11;8.43;;;4.47;;
69678;SDS011;56915;52.046;4.854;2022-09-09T03:46:38;6.93;;;4.32;;
69678;SDS011;56915;52.046;4.854;2022-09-09T03:49:04;10.90;;;4.53;;
69678;SDS011;56915;52.046;4.854;2022-09-09T03:51:31;8.10;;;4.25;;
69678;SDS011;56915;52.046;4.854;2022-09-09T03:54:02;7.63;;;3.83;;
69678;SDS011;56915;52.046;4.854;2022-09-09T03:56:31;8.65;;;3.72;;
69678;SDS011;56915;52.046;4.854;2022-09-09T03:58:58;7.82;;;3.63;;
69678;SDS011;56915;52.046;4.854;2022-09-09T04:01:24;9.63;;;3.80;;
69678;SDS011;56915;52.046;4.854;2022-09-09T04:03:51;8.23;;;3.78;;
69678;SDS011;56915;52.046;4.854;2022-09-09T04:06:18;6.97;;;3.43;;
69678;SDS011;56915;52.046;4.854;2022-09-09T04:08:49;8.02;;;3.58;;
69678;SDS011;56915;52.046;4.854;2022-09-09T04:11:16;7.18;;;3.35;;
69678;SDS011;56915;52.046;4.854;2022-09-09T04:13:44;11.02;;;4.10;;
69678;SDS011;56915;52.046;4.854;2022-09-09T04:16:11;5.85;;;3.17;;
69678;SDS011;56915;52.046;4.854;2022-09-09T04:18:39;6.83;;;3.20;;
69678;SDS011;56915;52.046;4.854;2022-09-09T04:21:07;6.93;;;3.22;;
69678;SDS011;56915;52.046;4.854;2022-09-09T04:23:36;5.82;;;3.22;;
69678;SDS011;56915;52.046;4.854;2022-09-09T04:26:03;6.85;;;3.30;;
69678;SDS011;56915;52.046;4.854;2022-09-09T04:28:31;5.40;;;3.40;;
69678;SDS011;56915;52.046;4.854;2022-09-09T04:31:04;5.93;;;2.80;;
69678;SDS011;56915;52.046;4.854;2022-09-09T04:33:32;6.28;;;3.00;;
69678;SDS011;56915;52.046;4.854;2022-09-09T04:36:05;9.70;;;3.30;;
69678;SDS011;56915;52.046;4.854;2022-09-09T04:38:32;4.97;;;2.72;;
69678;SDS011;56915;52.046;4.854;2022-09-09T04:40:59;7.15;;;3.03;;
69678;SDS011;56915;52.046;4.854;2022-09-09T04:43:25;6.37;;;3.00;;
69678;SDS011;56915;52.046;4.854;2022-09-09T04:45:53;6.97;;;3.15;;
69678;SDS011;56915;52.046;4.854;2022-09-09T04:48:20;8.05;;;3.08;;
69678;SDS011;56915;52.046;4.854;2022-09-09T04:51:00;6.13;;;2.90;;
69678;SDS011;56915;52.046;4.854;2022-09-09T04:53:30;6.85;;;3.13;;
69678;SDS011;56915;52.046;4.854;2022-09-09T04:56:14;8.37;;;3.00;;
69678;SDS011;56915;52.046;4.854;2022-09-09T04:58:42;9.07;;;3.33;;
69678;SDS011;56915;52.046;4.854;2022-09-09T05:01:13;10.57;;;3.00;;
69678;SDS011;56915;52.046;4.854;2022-09-09T05:03:43;9.65;;;3.20;;
69678;SDS011;56915;52.046;4.854;2022-09-09T05:06:14;6.75;;;3.00;;
69678;SDS011;56915;52.046;4.854;2022-09-09T05:08:43;7.37;;;2.90;;
69678;SDS011;56915;52.046;4.854;2022-09-09T05:11:23;5.55;;;2.92;;
69678;SDS011;56915;52.046;4.854;2022-09-09T05:13:52;5.28;;;2.53;;
69678;SDS011;56915;52.046;4.854;2022-09-09T05:16:20;6.10;;;2.60;;
69678;SDS011;56915;52.046;4.854;2022-09-09T05:21:39;7.67;;;2.60;;
69678;SDS011;56915;52.046;4.854;2022-09-09T05:24:05;6.13;;;2.70;;
69678;SDS011;56915;52.046;4.854;2022-09-09T05:26:32;8.43;;;2.90;;
69678;SDS011;56915;52.046;4.854;2022-09-09T05:28:59;5.95;;;2.80;;
69678;SDS011;56915;52.046;4.854;2022-09-09T05:31:26;6.53;;;2.70;;
69678;SDS011;56915;52.046;4.854;2022-09-09T05:33:55;7.67;;;2.70;;
69678;SDS011;56915;52.046;4.854;2022-09-09T05:36:22;6.97;;;2.63;;
69678;SDS011;56915;52.046;4.854;2022-09-09T05:38:49;9.30;;;2.72;;
69678;SDS011;56915;52.046;4.854;2022-09-09T05:41:16;5.13;;;2.40;;
69678;SDS011;56915;52.046;4.854;2022-09-09T05:43:43;7.93;;;2.38;;
69678;SDS011;56915;52.046;4.854;2022-09-09T05:46:11;8.10;;;2.43;;
69678;SDS011;56915;52.046;4.854;2022-09-09T05:48:43;8.15;;;2.33;;
69678;SDS011;56915;52.046;4.854;2022-09-09T05:51:15;7.07;;;2.30;;
69678;SDS011;56915;52.046;4.854;2022-09-09T05:53:44;5.90;;;2.30;;
69678;SDS011;56915;52.046;4.854;2022-09-09T05:56:12;5.85;;;2.10;;
69678;SDS011;56915;52.046;4.854;2022-09-09T05:58:44;6.50;;;2.10;;
69678;SDS011;56915;52.046;4.854;2022-09-09T06:01:17;5.30;;;2.17;;
69678;SDS011;56915;52.046;4.854;2022-09-09T06:03:46;5.13;;;2.20;;
69678;SDS011;56915;52.046;4.854;2022-09-09T06:06:14;7.53;;;2.28;;
69678;SDS011;56915;52.046;4.854;2022-09-09T06:08:44;7.13;;;2.30;;
69678;SDS011;56915;52.046;4.854;2022-09-09T06:11:12;7.10;;;2.33;;
69678;SDS011;56915;52.046;4.854;2022-09-09T06:13:41;10.00;;;2.50;;
69678;SDS011;56915;52.046;4.854;2022-09-09T06:16:09;7.32;;;2.10;;
69678;SDS011;56915;52.046;4.854;2022-09-09T06:18:38;6.63;;;2.13;;
69678;SDS011;56915;52.046;4.854;2022-09-09T06:21:09;6.10;;;2.17;;
69678;SDS011;56915;52.046;4.854;2022-09-09T06:23:41;6.70;;;2.10;;
69678;SDS011;56915;52.046;4.854;2022-09-09T06:26:12;8.23;;;1.95;;
69678;SDS011;56915;52.046;4.854;2022-09-09T06:28:47;6.53;;;2.03;;
69678;SDS011;56915;52.046;4.854;2022-09-09T06:31:16;7.88;;;2.33;;
69678;SDS011;56915;52.046;4.854;2022-09-09T06:33:53;8.40;;;2.00;;
69678;SDS011;56915;52.046;4.854;2022-09-09T06:36:28;4.07;;;1.83;;
69678;SDS011;56915;52.046;4.854;2022-09-09T06:38:58;5.88;;;1.92;;
69678;SDS011;56915;52.046;4.854;2022-09-09T06:41:27;6.55;;;1.92;;
69678;SDS011;56915;52.046;4.854;2022-09-09T06:43:56;6.35;;;2.20;;
69678;SDS011;56915;52.046;4.854;2022-09-09T06:46:24;6.68;;;2.67;;
69678;SDS011;56915;52.046;4.854;2022-09-09T06:48:56;7.18;;;2.13;;
69678;SDS011;56915;52.046;4.854;2022-09-09T06:51:26;8.48;;;2.15;;
69678;SDS011;56915;52.046;4.854;2022-09-09T06:53:56;5.63;;;2.67;;
69678;SDS011;56915;52.046;4.854;2022-09-09T06:56:37;6.80;;;2.58;;
69678;SDS011;56915;52.046;4.854;2022-09-09T06:59:11;5.03;;;2.08;;
69678;SDS011;56915;52.046;4.854;2022-09-09T07:01:39;7.20;;;2.38;;
69678;SDS011;56915;52.046;4.854;2022-09-09T07:04:07;4.97;;;2.22;;
69678;SDS011;56915;52.046;4.854;2022-09-09T07:06:36;5.28;;;2.20;;
69678;SDS011;56915;52.046;4.854;2022-09-09T07:09:05;7.47;;;2.30;;
69678;SDS011;56915;52.046;4.854;2022-09-09T07:11:44;3.47;;;2.10;;
69678;SDS011;56915;52.046;4.854;2022-09-09T07:14:13;5.43;;;2.30;;
69678;SDS011;56915;52.046;4.854;2022-09-09T07:16:41;5.43;;;2.40;;
69678;SDS011;56915;52.046;4.854;2022-09-09T07:19:08;6.07;;;2.90;;
69678;SDS011;56915;52.046;4.854;2022-09-09T07:21:36;9.57;;;2.70;;
69678;SDS011;56915;52.046;4.854;2022-09-09T07:24:03;8.57;;;2.90;;
69678;SDS011;56915;52.046;4.854;2022-09-09T07:26:33;6.38;;;2.80;;
69678;SDS011;56915;52.046;4.854;2022-09-09T07:29:00;8.82;;;3.45;;
69678;SDS011;56915;52.046;4.854;2022-09-09T07:31:28;9.65;;;3.22;;
69678;SDS011;56915;52.046;4.854;2022-09-09T07:33:57;6.68;;;3.15;;
69678;SDS011;56915;52.046;4.854;2022-09-09T07:36:30;6.90;;;3.38;;
69678;SDS011;56915;52.046;4.854;2022-09-09T07:39:02;9.88;;;3.05;;
69678;SDS011;56915;52.046;4.854;2022-09-09T07:41:35;9.05;;;3.00;;
69678;SDS011;56915;52.046;4.854;2022-09-09T07:44:07;6.72;;;2.85;;
69678;SDS011;56915;52.046;4.854;2022-09-09T07:46:37;5.72;;;2.80;;
69678;SDS011;56915;52.046;4.854;2022-09-09T07:49:06;7.72;;;2.90;;
69678;SDS011;56915;52.046;4.854;2022-09-09T07:51:40;7.53;;;2.80;;
69678;SDS011;56915;52.046;4.854;2022-09-09T07:54:10;4.95;;;2.70;;
69678;SDS011;56915;52.046;4.854;2022-09-09T07:56:43;7.05;;;2.60;;
69678;SDS011;56915;52.046;4.854;2022-09-09T07:59:10;6.35;;;2.63;;
69678;SDS011;56915;52.046;4.854;2022-09-09T08:01:39;10.38;;;2.80;;
69678;SDS011;56915;52.046;4.854;2022-09-09T08:04:09;7.47;;;3.00;;
69678;SDS011;56915;52.046;4.854;2022-09-09T08:06:42;7.43;;;2.72;;
69678;SDS011;56915;52.046;4.854;2022-09-09T08:09:14;6.22;;;2.53;;
69678;SDS011;56915;52.046;4.854;2022-09-09T08:11:42;4.72;;;2.33;;
69678;SDS011;56915;52.046;4.854;2022-09-09T08:14:09;7.13;;;2.58;;
69678;SDS011;56915;52.046;4.854;2022-09-09T08:16:38;5.82;;;2.50;;
69678;SDS011;56915;52.046;4.854;2022-09-09T08:19:13;7.93;;;3.10;;
69678;SDS011;56915;52.046;4.854;2022-09-09T08:21:43;8.43;;;2.90;;
69678;SDS011;56915;52.046;4.854;2022-09-09T08:24:11;5.53;;;2.67;;
69678;SDS011;56915;52.046;4.854;2022-09-09T08:26:41;6.82;;;2.67;;
69678;SDS011;56915;52.046;4.854;2022-09-09T08:29:10;7.80;;;2.90;;
69678;SDS011;56915;52.046;4.854;2022-09-09T08:31:41;8.10;;;2.65;;
69678;SDS011;56915;52.046;4.854;2022-09-09T08:34:22;5.70;;;2.70;;
69678;SDS011;56915;52.046;4.854;2022-09-09T08:36:51;5.68;;;2.63;;
69678;SDS011;56915;52.046;4.854;2022-09-09T08:39:19;7.43;;;2.70;;
69678;SDS011;56915;52.046;4.854;2022-09-09T08:52:14;5.43;;;2.30;;
69678;SDS011;56915;52.046;4.854;2022-09-09T08:54:49;5.03;;;2.20;;
69678;SDS011;56915;52.046;4.854;2022-09-09T08:57:20;3.63;;;2.20;;
69678;SDS011;56915;52.046;4.854;2022-09-09T08:59:53;5.38;;;2.30;;
69678;SDS011;56915;52.046;4.854;2022-09-09T09:02:25;7.13;;;2.22;;
69678;SDS011;56915;52.046;4.854;2022-09-09T09:18:51;6.50;;;2.30;;
69678;SDS011;56915;52.046;4.854;2022-09-09T09:21:21;7.43;;;2.70;;
69678;SDS011;56915;52.046;4.854;2022-09-09T09:23:59;6.45;;;2.40;;
69678;SDS011;56915;52.046;4.854;2022-09-09T09:26:29;5.30;;;2.40;;
69678;SDS011;56915;52.046;4.854;2022-09-09T09:28:59;6.25;;;2.42;;
69678;SDS011;56915;52.046;4.854;2022-09-09T09:31:34;5.40;;;2.25;;
69678;SDS011;56915;52.046;4.854;2022-09-09T09:34:01;5.85;;;2.20;;
69678;SDS011;56915;52.046;4.854;2022-09-09T09:36:37;10.45;;;2.70;;
69678;SDS011;56915;52.046;4.854;2022-09-09T09:39:07;4.65;;;1.98;;
69678;SDS011;56915;52.046;4.854;2022-09-09T09:41:56;7.25;;;2.60;;
69678;SDS011;56915;52.046;4.854;2022-09-09T09:44:32;7.70;;;2.63;;
69678;SDS011;56915;52.046;4.854;2022-09-09T09:49:56;7.22;;;2.40;;
69678;SDS011;56915;52.046;4.854;2022-09-09T09:52:29;4.30;;;2.30;;
69678;SDS011;56915;52.046;4.854;2022-09-09T09:54:58;5.40;;;2.25;;
69678;SDS011;56915;52.046;4.854;2022-09-09T09:57:32;4.65;;;2.50;;
69678;SDS011;56915;52.046;4.854;2022-09-09T10:00:13;7.20;;;2.20;;
69678;SDS011;56915;52.046;4.854;2022-09-09T10:02:47;5.07;;;2.42;;
69678;SDS011;56915;52.046;4.854;2022-09-09T10:13:30;6.15;;;2.42;;
69678;SDS011;56915;52.046;4.854;2022-09-09T10:27:23;12.60;;;2.60;;
69678;SDS011;56915;52.046;4.854;2022-09-09T10:30:11;4.38;;;1.92;;
69678;SDS011;56915;52.046;4.854;2022-09-09T10:35:43;5.03;;;2.10;;
69678;SDS011;56915;52.046;4.854;2022-09-09T10:41:18;7.28;;;2.40;;
69678;SDS011;56915;52.046;4.854;2022-09-09T10:53:37;4.75;;;2.25;;
69678;SDS011;56915;52.046;4.854;2022-09-09T10:56:08;5.65;;;2.70;;
69678;SDS011;56915;52.046;4.854;2022-09-09T10:58:40;7.88;;;2.30;;
69678;SDS011;56915;52.046;4.854;2022-09-09T11:01:28;5.22;;;2.30;;
69678;SDS011;56915;52.046;4.854;2022-09-09T11:04:10;4.50;;;2.30;;
69678;SDS011;56915;52.046;4.854;2022-09-09T11:06:44;7.22;;;2.42;;
69678;SDS011;56915;52.046;4.854;2022-09-09T11:09:19;5.13;;;2.10;;
69678;SDS011;56915;52.046;4.854;2022-09-09T11:11:54;7.03;;;2.20;;
69678;SDS011;56915;52.046;4.854;2022-09-09T11:14:33;6.10;;;2.35;;
69678;SDS011;56915;52.046;4.854;2022-09-09T11:17:14;4.15;;;2.30;;
69678;SDS011;56915;52.046;4.854;2022-09-09T11:19:44;4.18;;;2.00;;
69678;SDS011;56915;52.046;4.854;2022-09-09T11:22:16;5.43;;;2.20;;
69678;SDS011;56915;52.046;4.854;2022-09-09T11:24:49;5.80;;;2.50;;
69678;SDS011;56915;52.046;4.854;2022-09-09T11:27:31;4.72;;;2.42;;
69678;SDS011;56915;52.046;4.854;2022-09-09T11:30:22;7.18;;;2.40;;
69678;SDS011;56915;52.046;4.854;2022-09-09T11:36:34;4.65;;;2.10;;
69678;SDS011;56915;52.046;4.854;2022-09-09T11:42:15;4.30;;;2.40;;
69678;SDS011;56915;52.046;4.854;2022-09-09T11:44:48;4.07;;;2.17;;
69678;SDS011;56915;52.046;4.854;2022-09-09T11:47:17;4.82;;;2.20;;
69678;SDS011;56915;52.046;4.854;2022-09-09T11:49:45;4.90;;;2.20;;
69678;SDS011;56915;52.046;4.854;2022-09-09T11:52:34;2.75;;;2.17;;
69678;SDS011;56915;52.046;4.854;2022-09-09T11:55:24;4.68;;;2.30;;
69678;SDS011;56915;52.046;4.854;2022-09-09T11:57:59;4.80;;;2.38;;
69678;SDS011;56915;52.046;4.854;2022-09-09T12:00:32;5.72;;;2.40;;
69678;SDS011;56915;52.046;4.854;2022-09-09T12:06:00;5.25;;;2.75;;
69678;SDS011;56915;52.046;4.854;2022-09-09T12:08:48;4.95;;;2.78;;
69678;SDS011;56915;52.046;4.854;2022-09-09T12:11:27;10.40;;;3.50;;
69678;SDS011;56915;52.046;4.854;2022-09-09T12:13:59;4.65;;;3.17;;
69678;SDS011;56915;52.046;4.854;2022-09-09T12:16:31;4.32;;;3.00;;
69678;SDS011;56915;52.046;4.854;2022-09-09T12:19:13;4.95;;;3.03;;
69678;SDS011;56915;52.046;4.854;2022-09-09T12:24:37;4.45;;;2.90;;
69678;SDS011;56915;52.046;4.854;2022-09-09T12:29:53;5.10;;;3.20;;
69678;SDS011;56915;52.046;4.854;2022-09-09T12:32:28;5.32;;;2.78;;
69678;SDS011;56915;52.046;4.854;2022-09-09T12:34:59;5.18;;;3.20;;
69678;SDS011;56915;52.046;4.854;2022-09-09T12:40:05;4.90;;;3.00;;
69678;SDS011;56915;52.046;4.854;2022-09-09T12:42:44;5.13;;;3.05;;
69678;SDS011;56915;52.046;4.854;2022-09-09T12:45:27;4.45;;;3.17;;
69678;SDS011;56915;52.046;4.854;2022-09-09T12:47:58;3.75;;;3.03;;
69678;SDS011;56915;52.046;4.854;2022-09-09T12:50:32;5.30;;;3.13;;
69678;SDS011;56915;52.046;4.854;2022-09-09T12:53:03;4.07;;;2.97;;
69678;SDS011;56915;52.046;4.854;2022-09-09T12:55:36;4.85;;;2.75;;
69678;SDS011;56915;52.046;4.854;2022-09-09T12:58:05;6.85;;;2.95;;
69678;SDS011;56915;52.046;4.854;2022-09-09T13:00:33;4.70;;;2.92;;
69678;SDS011;56915;52.046;4.854;2022-09-09T13:03:02;5.03;;;2.88;;
69678;SDS011;56915;52.046;4.854;2022-09-09T13:05:42;5.93;;;2.72;;
69678;SDS011;56915;52.046;4.854;2022-09-09T13:08:09;4.50;;;2.80;;
69678;SDS011;56915;52.046;4.854;2022-09-09T13:10:40;6.10;;;3.17;;
69678;SDS011;56915;52.046;4.854;2022-09-09T13:13:21;5.80;;;2.67;;
69678;SDS011;56915;52.046;4.854;2022-09-09T13:15:53;5.13;;;2.88;;
69678;SDS011;56915;52.046;4.854;2022-09-09T13:18:29;4.82;;;2.80;;
69678;SDS011;56915;52.046;4.854;2022-09-09T13:21:04;5.70;;;2.83;;
69678;SDS011;56915;52.046;4.854;2022-09-09T13:23:32;5.68;;;2.92;;
69678;SDS011;56915;52.046;4.854;2022-09-09T13:26:05;4.95;;;2.75;;
69678;SDS011;56915;52.046;4.854;2022-09-09T13:28:53;3.78;;;2.72;;
69678;SDS011;56915;52.046;4.854;2022-09-09T13:33:55;4.22;;;2.80;;
69678;SDS011;56915;52.046;4.854;2022-09-09T13:36:30;4.38;;;2.90;;
69678;SDS011;56915;52.046;4.854;2022-09-09T13:38:58;4.50;;;2.90;;
69678;SDS011;56915;52.046;4.854;2022-09-09T13:41:31;5.93;;;3.47;;
69678;SDS011;56915;52.046;4.854;2022-09-09T13:44:02;5.10;;;3.10;;
69678;SDS011;56915;52.046;4.854;2022-09-09T13:46:39;5.95;;;3.30;;
69678;SDS011;56915;52.046;4.854;2022-09-09T13:51:43;5.95;;;2.95;;
69678;SDS011;56915;52.046;4.854;2022-09-09T13:54:18;4.70;;;2.80;;
69678;SDS011;56915;52.046;4.854;2022-09-09T13:56:47;5.10;;;2.65;;
69678;SDS011;56915;52.046;4.854;2022-09-09T13:59:16;3.63;;;2.42;;
69678;SDS011;56915;52.046;4.854;2022-09-09T14:02:07;4.68;;;2.75;;
69678;SDS011;56915;52.046;4.854;2022-09-09T14:04:34;5.28;;;2.50;;
69678;SDS011;56915;52.046;4.854;2022-09-09T14:07:01;3.65;;;2.33;;
69678;SDS011;56915;52.046;4.854;2022-09-09T14:09:29;2.75;;;1.90;;
69678;SDS011;56915;52.046;4.854;2022-09-09T14:11:56;3.35;;;2.10;;
69678;SDS011;56915;52.046;4.854;2022-09-09T14:14:23;4.20;;;2.03;;
69678;SDS011;56915;52.046;4.854;2022-09-09T14:16:52;2.85;;;2.00;;
69678;SDS011;56915;52.046;4.854;2022-09-09T14:19:18;3.00;;;1.40;;
69678;SDS011;56915;52.046;4.854;2022-09-09T14:21:46;4.50;;;1.20;;
69678;SDS011;56915;52.046;4.854;2022-09-09T14:24:12;2.22;;;0.90;;
69678;SDS011;56915;52.046;4.854;2022-09-09T14:26:40;3.00;;;1.02;;
69678;SDS011;56915;52.046;4.854;2022-09-09T14:29:07;2.17;;;1.08;;
69678;SDS011;56915;52.046;4.854;2022-09-09T14:31:36;2.17;;;1.00;;
69678;SDS011;56915;52.046;4.854;2022-09-09T14:34:03;2.83;;;1.30;;
69678;SDS011;56915;52.046;4.854;2022-09-09T14:36:30;4.10;;;1.30;;
69678;SDS011;56915;52.046;4.854;2022-09-09T14:38:56;4.80;;;1.65;;
69678;SDS011;56915;52.046;4.854;2022-09-09T14:41:23;2.15;;;1.50;;
69678;SDS011;56915;52.046;4.854;2022-09-09T14:43:51;3.50;;;1.73;;
69678;SDS011;56915;52.046;4.854;2022-09-09T14:46:18;4.80;;;1.92;;
69678;SDS011;56915;52.046;4.854;2022-09-09T14:48:45;2.88;;;1.75;;
69678;SDS011;56915;52.046;4.854;2022-09-09T14:51:20;3.95;;;1.80;;
69678;SDS011;56915;52.046;4.854;2022-09-09T14:53:52;5.80;;;2.20;;
69678;SDS011;56915;52.046;4.854;2022-09-09T14:56:21;5.13;;;2.15;;
69678;SDS011;56915;52.046;4.854;2022-09-09T14:58:50;5.80;;;2.30;;
69678;SDS011;56915;52.046;4.854;2022-09-09T15:01:19;3.85;;;2.20;;
69678;SDS011;56915;52.046;4.854;2022-09-09T15:03:54;4.20;;;2.03;;
69678;SDS011;56915;52.046;4.854;2022-09-09T15:06:29;4.75;;;2.20;;
69678;SDS011;56915;52.046;4.854;2022-09-09T15:08:59;3.63;;;1.73;;
69678;SDS011;56915;52.046;4.854;2022-09-09T15:11:28;3.78;;;2.13;;
69678;SDS011;56915;52.046;4.854;2022-09-09T15:13:59;3.03;;;1.60;;
69678;SDS011;56915;52.046;4.854;2022-09-09T15:16:27;3.53;;;1.60;;
69678;SDS011;56915;52.046;4.854;2022-09-09T15:18:56;1.90;;;1.40;;
69678;SDS011;56915;52.046;4.854;2022-09-09T15:21:27;2.17;;;1.33;;
69678;SDS011;56915;52.046;4.854;2022-09-09T15:23:56;1.75;;;1.30;;
69678;SDS011;56915;52.046;4.854;2022-09-09T15:26:24;1.63;;;1.30;;
69678;SDS011;56915;52.046;4.854;2022-09-09T15:31:26;2.70;;;1.20;;
69678;SDS011;56915;52.046;4.854;2022-09-09T15:33:58;3.20;;;1.20;;
69678;SDS011;56915;52.046;4.854;2022-09-09T15:36:31;4.97;;;1.70;;
69678;SDS011;56915;52.046;4.854;2022-09-09T15:38:59;2.58;;;1.20;;
69678;SDS011;56915;52.046;4.854;2022-09-09T15:41:28;2.10;;;1.08;;
69678;SDS011;56915;52.046;4.854;2022-09-09T15:43:57;3.17;;;1.20;;
69678;SDS011;56915;52.046;4.854;2022-09-09T15:46:29;1.88;;;1.02;;
69678;SDS011;56915;52.046;4.854;2022-09-09T15:49:08;3.05;;;1.23;;
69678;SDS011;56915;52.046;4.854;2022-09-09T15:51:40;2.13;;;1.10;;
69678;SDS011;56915;52.046;4.854;2022-09-09T15:54:11;2.15;;;1.30;;
69678;SDS011;56915;52.046;4.854;2022-09-09T15:56:47;3.05;;;1.40;;
69678;SDS011;56915;52.046;4.854;2022-09-09T15:59:17;4.03;;;1.60;;
69678;SDS011;56915;52.046;4.854;2022-09-09T16:01:44;3.40;;;1.50;;
69678;SDS011;56915;52.046;4.854;2022-09-09T16:04:11;2.95;;;1.48;;
69678;SDS011;56915;52.046;4.854;2022-09-09T16:06:38;3.23;;;1.60;;
69678;SDS011;56915;52.046;4.854;2022-09-09T16:09:06;2.80;;;1.55;;
69678;SDS011;56915;52.046;4.854;2022-09-09T16:11:35;3.03;;;1.80;;
69678;SDS011;56915;52.046;4.854;2022-09-09T16:14:03;4.43;;;2.40;;
69678;SDS011;56915;52.046;4.854;2022-09-09T16:16:30;4.50;;;2.42;;
69678;SDS011;56915;52.046;4.854;2022-09-09T16:18:58;5.40;;;2.00;;
69678;SDS011;56915;52.046;4.854;2022-09-09T16:21:28;7.20;;;2.28;;
69678;SDS011;56915;52.046;4.854;2022-09-09T16:23:57;8.85;;;2.75;;
69678;SDS011;56915;52.046;4.854;2022-09-09T16:26:29;6.05;;;2.70;;
69678;SDS011;56915;52.046;4.854;2022-09-09T16:28:59;5.72;;;2.90;;
69678;SDS011;56915;52.046;4.854;2022-09-09T16:31:27;4.47;;;3.00;;
69678;SDS011;56915;52.046;4.854;2022-09-09T16:33:54;6.30;;;3.20;;
69678;SDS011;56915;52.046;4.854;2022-09-09T16:36:27;4.40;;;3.10;;
69678;SDS011;56915;52.046;4.854;2022-09-09T16:39:00;7.97;;;3.58;;
69678;SDS011;56915;52.046;4.854;2022-09-09T16:41:31;7.30;;;3.50;;
69678;SDS011;56915;52.046;4.854;2022-09-09T16:43:59;6.35;;;3.40;;
69678;SDS011;56915;52.046;4.854;2022-09-09T16:46:29;6.32;;;3.47;;
69678;SDS011;56915;52.046;4.854;2022-09-09T16:48:57;4.78;;;3.60;;
69678;SDS011;56915;52.046;4.854;2022-09-09T16:51:26;4.80;;;3.35;;
69678;SDS011;56915;52.046;4.854;2022-09-09T16:53:56;7.18;;;3.70;;
69678;SDS011;56915;52.046;4.854;2022-09-09T16:56:26;6.50;;;3.58;;
69678;SDS011;56915;52.046;4.854;2022-09-09T16:58:54;7.05;;;3.75;;
69678;SDS011;56915;52.046;4.854;2022-09-09T17:01:23;5.90;;;3.88;;
69678;SDS011;56915;52.046;4.854;2022-09-09T17:04:03;6.47;;;3.97;;
69678;SDS011;56915;52.046;4.854;2022-09-09T17:06:32;6.72;;;3.67;;
69678;SDS011;56915;52.046;4.854;2022-09-09T17:09:07;6.05;;;3.72;;
69678;SDS011;56915;52.046;4.854;2022-09-09T17:11:36;4.65;;;3.53;;
69678;SDS011;56915;52.046;4.854;2022-09-09T17:14:05;8.18;;;3.75;;
69678;SDS011;56915;52.046;4.854;2022-09-09T17:19:09;6.65;;;3.65;;
69678;SDS011;56915;52.046;4.854;2022-09-09T17:21:39;7.88;;;3.55;;
69678;SDS011;56915;52.046;4.854;2022-09-09T17:24:27;7.85;;;3.42;;
69678;SDS011;56915;52.046;4.854;2022-09-09T17:26:55;7.53;;;3.90;;
69678;SDS011;56915;52.046;4.854;2022-09-09T17:29:23;6.25;;;3.63;;
69678;SDS011;56915;52.046;4.854;2022-09-09T17:31:51;5.93;;;3.53;;